createdAt,value
2023-08-06T00:00:54.777Z,99441.78
2023-08-06T00:03:23.480Z,99431.31
2023-08-06T00:05:52.081Z,99429.44
2023-08-06T00:08:20.573Z,99442.19
2023-08-06T00:10:50.771Z,99436.63
2023-08-06T00:13:19.284Z,99429.28
2023-08-06T00:15:49.242Z,99430.56
2023-08-06T00:18:17.715Z,99424.13
2023-08-06T00:20:46.185Z,99429.44
2023-08-06T00:23:14.792Z,99425.88
2023-08-06T00:25:43.373Z,99423.13
2023-08-06T00:28:11.812Z,99410.56
2023-08-06T00:30:40.352Z,99413.88
2023-08-06T00:33:10.160Z,99417.59
2023-08-06T00:35:38.619Z,99404.66
2023-08-06T00:38:07.228Z,99401.53
2023-08-06T00:40:35.703Z,99394.41
2023-08-06T00:43:04.240Z,99395.41
2023-08-06T00:45:36.480Z,99391.75
2023-08-06T00:48:06.808Z,99384.84
2023-08-06T00:50:36.774Z,99385.78
2023-08-06T00:53:05.598Z,99379.81
2023-08-06T00:55:35.310Z,99388.78
2023-08-06T00:58:04.516Z,99370.88
2023-08-06T01:00:33.377Z,99372.50
2023-08-06T01:03:02.453Z,99368.44
2023-08-06T01:05:30.972Z,99375.72
2023-08-06T01:08:18.215Z,99362.47
2023-08-06T01:11:01.512Z,99358.53
2023-08-06T01:13:40.456Z,99365.22
2023-08-06T01:16:09.870Z,99357.22
2023-08-06T01:18:40.147Z,99348.69
2023-08-06T01:21:09.982Z,99349.41
2023-08-06T01:23:38.554Z,99347.19
2023-08-06T01:26:17.909Z,99337.31
2023-08-06T01:28:55.995Z,99340.56
2023-08-06T01:31:29.264Z,99342.16
2023-08-06T01:34:00.775Z,99338.47
2023-08-06T01:36:31.292Z,99334.66
2023-08-06T01:39:02.333Z,99328.47
2023-08-06T01:41:30.852Z,99330.56
2023-08-06T01:43:59.677Z,99328.94
2023-08-06T01:46:28.124Z,99320.41
2023-08-06T01:48:56.522Z,99330.88
2023-08-06T01:51:24.970Z,99330.06
2023-08-06T01:53:54.703Z,99327.66
2023-08-06T01:56:23.241Z,99324.75
2023-08-06T01:58:51.651Z,99313.53
2023-08-06T02:01:20.105Z,99317.09
2023-08-06T02:03:48.475Z,99309.09
2023-08-06T02:06:16.880Z,99306.03
2023-08-06T02:08:46.331Z,99305.47
2023-08-06T02:11:19.523Z,99300.22
2023-08-06T02:13:48.772Z,99303.25
2023-08-06T02:16:21.198Z,99297.16
2023-08-06T02:18:49.609Z,99297.38
2023-08-06T02:21:18.004Z,99291.56
2023-08-06T02:23:46.345Z,99282.22
2023-08-06T02:26:14.752Z,99277.94
2023-08-06T02:28:44.460Z,99279.06
2023-08-06T02:31:15.139Z,99274.78
2023-08-06T02:33:43.557Z,99278.00
2023-08-06T02:36:13.041Z,99271.66
2023-08-06T02:38:41.432Z,99260.75
2023-08-06T02:41:09.896Z,99263.66
2023-08-06T02:43:38.263Z,99262.28
2023-08-06T02:46:08.595Z,99257.22
2023-08-06T02:48:36.971Z,99250.75
2023-08-06T02:51:05.644Z,99253.94
2023-08-06T02:53:35.254Z,99252.69
2023-08-06T02:56:07.946Z,99254.22
2023-08-06T02:58:56.538Z,99257.16
2023-08-06T03:01:37.275Z,99259.00
2023-08-06T03:04:13.253Z,99250.28
2023-08-06T03:06:45.714Z,99252.94
2023-08-06T03:09:14.500Z,99238.59
2023-08-06T03:11:42.945Z,99245.75
2023-08-06T03:14:15.053Z,99239.94
2023-08-06T03:16:45.689Z,99237.34
2023-08-06T03:19:17.102Z,99240.25
2023-08-06T03:21:46.012Z,99232.19
2023-08-06T03:24:16.289Z,99227.13
2023-08-06T03:26:46.388Z,99225.84
2023-08-06T03:29:14.805Z,99227.06
2023-08-06T03:31:46.022Z,99225.69
2023-08-06T03:34:16.656Z,99228.84
2023-08-06T03:36:45.257Z,99224.88
2023-08-06T03:39:14.969Z,99213.50
2023-08-06T03:41:44.155Z,99207.63
2023-08-06T03:44:12.581Z,99212.94
2023-08-06T03:46:41.110Z,99214.56
2023-08-06T03:49:12.271Z,99209.13
2023-08-06T03:51:40.703Z,99204.53
2023-08-06T03:54:09.106Z,99202.66
2023-08-06T03:56:38.125Z,99197.78
2023-08-06T03:59:06.959Z,99201.81
2023-08-06T04:01:35.407Z,99189.78
2023-08-06T04:04:03.860Z,99197.09
2023-08-06T04:06:33.635Z,99192.41
2023-08-06T04:09:02.022Z,99202.03
2023-08-06T04:11:30.429Z,99203.06
2023-08-06T04:13:59.973Z,99201.50
2023-08-06T04:16:28.555Z,99197.34
2023-08-06T04:18:57.653Z,99195.63
2023-08-06T04:21:26.215Z,99192.94
2023-08-06T04:23:55.978Z,99186.66
2023-08-06T04:26:24.495Z,99201.31
2023-08-06T04:28:52.840Z,99190.47
2023-08-06T04:31:21.732Z,99197.22
2023-08-06T04:33:50.286Z,99196.34
2023-08-06T04:36:19.397Z,99199.31
2023-08-06T04:38:48.567Z,99194.25
2023-08-06T04:41:19.652Z,99196.72
2023-08-06T04:43:48.052Z,99194.75
2023-08-06T04:46:16.616Z,99189.28
2023-08-06T04:48:45.090Z,99194.75
2023-08-06T04:51:13.469Z,99194.75
2023-08-06T04:53:41.862Z,99204.38
2023-08-06T04:56:10.325Z,99201.44
2023-08-06T04:58:40.562Z,99194.06
2023-08-06T05:01:09.084Z,99208.59
2023-08-06T05:03:37.465Z,99210.22
2023-08-06T05:06:05.914Z,99207.38
2023-08-06T05:08:34.297Z,99210.41
2023-08-06T05:11:02.681Z,99201.38
2023-08-06T05:13:31.033Z,99200.28
2023-08-06T05:16:01.233Z,99205.50
2023-08-06T05:18:29.869Z,99211.34
2023-08-06T05:20:58.314Z,99198.50
2023-08-06T05:23:26.677Z,99206.03
2023-08-06T05:25:55.031Z,99208.84
2023-08-06T05:28:23.410Z,99207.53
2023-08-06T05:30:51.844Z,99205.38
2023-08-06T05:33:21.690Z,99212.22
2023-08-06T05:35:51.840Z,99214.03
2023-08-06T05:38:20.271Z,99211.00
2023-08-06T05:40:48.723Z,99205.31
2023-08-06T05:43:17.122Z,99214.22
2023-08-06T05:45:47.956Z,99205.34
2023-08-06T05:48:16.451Z,99199.50
2023-08-06T05:50:46.325Z,99205.31
2023-08-06T05:53:14.737Z,99209.69
2023-08-06T05:55:43.115Z,99209.03
2023-08-06T05:58:11.515Z,99210.47
2023-08-06T06:00:39.880Z,99217.28
2023-08-06T06:03:08.278Z,99212.34
2023-08-06T06:05:36.632Z,99203.56
2023-08-06T06:08:06.512Z,99208.34
2023-08-06T06:10:34.880Z,99212.75
2023-08-06T06:13:03.292Z,99212.38
2023-08-06T06:15:31.686Z,99218.19
2023-08-06T06:18:00.080Z,99207.06
2023-08-06T06:20:28.525Z,99207.50
2023-08-06T06:22:57.051Z,99211.81
2023-08-06T06:25:26.801Z,99214.63
2023-08-06T06:27:55.234Z,99217.59
2023-08-06T06:30:23.955Z,99223.91
2023-08-06T06:32:52.385Z,99212.94
2023-08-06T06:35:20.887Z,99214.38
2023-08-06T06:37:50.446Z,99218.06
2023-08-06T06:40:19.039Z,99213.50
2023-08-06T06:42:48.796Z,99218.81
2023-08-06T06:45:17.406Z,99208.72
2023-08-06T06:47:45.903Z,99215.72
2023-08-06T06:50:14.508Z,99209.09
2023-08-06T06:52:43.686Z,99216.50
2023-08-06T06:55:12.120Z,99213.94
2023-08-06T06:57:40.506Z,99212.63
2023-08-06T07:00:11.833Z,99209.31
2023-08-06T07:02:40.599Z,99208.72
2023-08-06T07:05:10.710Z,99208.91
2023-08-06T07:07:39.116Z,99208.59
2023-08-06T07:10:09.067Z,99216.88
2023-08-06T07:12:38.040Z,99213.38
2023-08-06T07:15:10.249Z,99206.88
2023-08-06T07:17:38.701Z,99205.25
2023-08-06T07:20:09.413Z,99209.09
2023-08-06T07:22:37.894Z,99203.75
2023-08-06T07:25:07.126Z,99207.72
2023-08-06T07:27:35.623Z,99204.25
2023-08-06T07:30:04.295Z,99210.75
2023-08-06T07:32:34.140Z,99215.72
2023-08-06T07:35:03.973Z,99203.63
2023-08-06T07:37:32.377Z,99215.97
2023-08-06T07:40:00.785Z,99214.09
2023-08-06T07:42:29.188Z,99213.78
2023-08-06T07:45:00.302Z,99206.50
2023-08-06T07:47:28.702Z,99206.97
2023-08-06T07:49:58.596Z,99213.69
2023-08-06T07:52:26.930Z,99211.66
2023-08-06T07:54:55.313Z,99210.28
2023-08-06T07:57:23.696Z,99208.56
2023-08-06T07:59:52.540Z,99207.53
2023-08-06T08:02:20.906Z,99205.72
2023-08-06T08:04:49.662Z,99209.19
2023-08-06T08:07:19.381Z,99195.75
2023-08-06T08:09:49.475Z,99194.44
2023-08-06T08:12:17.861Z,99193.41
2023-08-06T08:14:46.660Z,99197.81
2023-08-06T08:17:15.057Z,99196.66
2023-08-06T08:19:43.726Z,99194.22
2023-08-06T08:22:12.174Z,99198.88
2023-08-06T08:24:41.932Z,99201.34
2023-08-06T08:27:10.372Z,99207.06
2023-08-06T08:29:38.758Z,99193.75
2023-08-06T08:32:07.677Z,99192.50
2023-08-06T08:34:36.120Z,99200.00
2023-08-06T08:37:04.570Z,99189.50
2023-08-06T08:39:32.952Z,99199.25
2023-08-06T08:42:03.452Z,99190.94
2023-08-06T08:44:33.393Z,99193.47
2023-08-06T08:47:02.434Z,99184.50
2023-08-06T08:49:32.293Z,99185.31
2023-08-06T08:52:04.300Z,99184.69
2023-08-06T08:54:35.118Z,99182.81
2023-08-06T08:57:05.818Z,99170.66
2023-08-06T08:59:36.285Z,99174.78
2023-08-06T09:02:05.093Z,99180.75
2023-08-06T09:04:36.132Z,99181.56
2023-08-06T09:07:06.253Z,99180.59
2023-08-06T09:09:38.902Z,99183.03
2023-08-06T09:12:16.439Z,99174.69
2023-08-06T09:14:45.267Z,99169.78
2023-08-06T09:17:13.893Z,99200.22
2023-08-06T09:19:48.105Z,99184.31
2023-08-06T09:22:16.757Z,99187.97
2023-08-06T09:24:45.899Z,99184.03
2023-08-06T09:27:16.400Z,99177.91
2023-08-06T09:29:46.216Z,99175.69
2023-08-06T09:32:15.137Z,99179.09
2023-08-06T09:34:48.618Z,99167.66
2023-08-06T09:37:17.109Z,99162.34
2023-08-06T09:39:45.447Z,99162.59
2023-08-06T09:42:19.205Z,99166.25
2023-08-06T09:44:47.624Z,99164.34
2023-08-06T09:47:19.582Z,99171.00
2023-08-06T09:49:48.237Z,99179.19
2023-08-06T09:52:17.891Z,99178.31
2023-08-06T09:54:47.132Z,99183.81
2023-08-06T09:57:16.912Z,99182.88
2023-08-06T09:59:48.502Z,99183.75
2023-08-06T10:02:16.969Z,99181.47
2023-08-06T10:04:55.054Z,99186.06
2023-08-06T10:07:25.337Z,99185.22
2023-08-06T10:09:54.136Z,99182.56
2023-08-06T10:12:23.529Z,99176.94
2023-08-06T10:14:56.104Z,99178.84
2023-08-06T10:17:31.323Z,99176.13
2023-08-06T10:20:10.067Z,99180.41
2023-08-06T10:22:38.606Z,99169.72
2023-08-06T10:25:08.393Z,99165.13
2023-08-06T10:27:42.733Z,99165.88
2023-08-06T10:30:27.169Z,99159.78
2023-08-06T10:32:58.459Z,99162.38
2023-08-06T10:35:37.814Z,99167.38
2023-08-06T10:38:09.429Z,99170.88
2023-08-06T10:40:38.759Z,99171.59
2023-08-06T10:43:09.154Z,99166.28
2023-08-06T10:45:40.723Z,99163.50
2023-08-06T10:48:09.288Z,99174.72
2023-08-06T10:50:37.955Z,99174.53
2023-08-06T10:53:08.073Z,99175.06
2023-08-06T10:55:39.532Z,99179.09
2023-08-06T10:58:07.901Z,99175.59
2023-08-06T11:00:36.259Z,99175.63
2023-08-06T11:03:06.408Z,99178.03
2023-08-06T11:05:35.235Z,99160.06
2023-08-06T11:08:03.754Z,99166.50
2023-08-06T11:10:32.116Z,99163.31
2023-08-06T11:13:03.961Z,99166.75
2023-08-06T11:15:32.923Z,99165.72
2023-08-06T11:18:01.633Z,99169.69
2023-08-06T11:20:31.510Z,99155.28
2023-08-06T11:22:59.918Z,99157.38
2023-08-06T11:25:28.280Z,99155.00
2023-08-06T11:27:56.650Z,99157.66
2023-08-06T11:30:25.038Z,99161.41
2023-08-06T11:32:53.385Z,99166.75
2023-08-06T11:35:21.735Z,99175.31
2023-08-06T11:37:51.620Z,99171.22
2023-08-06T11:40:20.304Z,99172.56
2023-08-06T11:42:50.144Z,99182.44
2023-08-06T11:45:18.548Z,99184.97
2023-08-06T11:47:54.369Z,99194.03
2023-08-06T11:50:26.588Z,99194.88
2023-08-06T11:53:02.055Z,99201.81
2023-08-06T11:55:31.269Z,99213.34
2023-08-06T11:58:00.495Z,99222.53
2023-08-06T12:00:28.894Z,99215.31
2023-08-06T12:02:58.537Z,99228.66
2023-08-06T12:05:34.308Z,99239.75
2023-08-06T12:08:05.458Z,99245.09
2023-08-06T12:10:34.847Z,99246.56
2023-08-06T12:13:03.869Z,99256.88
2023-08-06T12:15:33.876Z,99258.06
2023-08-06T12:18:02.509Z,99260.38
2023-08-06T12:20:31.577Z,99263.78
2023-08-06T12:22:59.992Z,99281.56
2023-08-06T12:25:29.953Z,99277.13
2023-08-06T12:27:58.869Z,99289.44
2023-08-06T12:30:27.555Z,99286.28
2023-08-06T12:32:56.009Z,99299.97
2023-08-06T12:35:26.732Z,99305.50
2023-08-06T12:37:55.848Z,99309.91
2023-08-06T12:40:35.912Z,99322.91
2023-08-06T12:43:06.881Z,99317.97
2023-08-06T12:45:35.791Z,99332.38
2023-08-06T12:48:04.644Z,99332.84
2023-08-06T12:50:34.521Z,99337.94
2023-08-06T12:53:03.420Z,99340.13
2023-08-06T12:55:33.464Z,99352.34
2023-08-06T12:58:02.229Z,99344.59
2023-08-06T13:00:32.022Z,99343.56
2023-08-06T13:03:00.626Z,99349.22
2023-08-06T13:05:29.079Z,99366.56
2023-08-06T13:07:57.849Z,99365.19
2023-08-06T13:10:27.019Z,99380.38
2023-08-06T13:12:55.530Z,99377.31
2023-08-06T13:15:23.973Z,99389.00
2023-08-06T13:17:53.876Z,99397.63
2023-08-06T13:20:23.953Z,99396.03
2023-08-06T13:22:54.617Z,99400.84
2023-08-06T13:25:24.003Z,99398.47
2023-08-06T13:27:53.496Z,99402.09
2023-08-06T13:30:21.881Z,99380.88
2023-08-06T13:32:50.327Z,99399.44
2023-08-06T13:35:20.217Z,99404.34
2023-08-06T13:37:49.261Z,99420.16
2023-08-06T13:40:18.169Z,99415.31
2023-08-06T13:42:46.659Z,99405.56
2023-08-06T13:45:15.080Z,99408.97
2023-08-06T13:47:44.170Z,99420.75
2023-08-06T13:50:12.710Z,99413.53
2023-08-06T13:52:42.632Z,99411.28
2023-08-06T13:55:11.436Z,99421.94
2023-08-06T13:57:39.844Z,99431.38
2023-08-06T14:00:10.085Z,99421.44
2023-08-06T14:02:41.570Z,99430.66
2023-08-06T14:05:10.323Z,99429.69
2023-08-06T14:07:38.718Z,99440.31
2023-08-06T14:10:10.373Z,99441.84
2023-08-06T14:12:38.851Z,99444.91
2023-08-06T14:15:08.343Z,99447.09
2023-08-06T14:17:36.868Z,99445.91
2023-08-06T14:20:08.832Z,99447.44
2023-08-06T14:22:37.188Z,99448.00
2023-08-06T14:25:08.899Z,99455.59
2023-08-06T14:27:37.334Z,99451.88
2023-08-06T14:30:07.656Z,99458.25
2023-08-06T14:32:38.230Z,99453.00
2023-08-06T14:35:07.666Z,99448.97
2023-08-06T14:37:36.555Z,99454.63
2023-08-06T14:40:05.941Z,99460.44
2023-08-06T14:42:35.645Z,99469.06
2023-08-06T14:45:04.942Z,99464.41
2023-08-06T14:47:33.431Z,99466.81
2023-08-06T14:50:01.866Z,99472.69
2023-08-06T14:52:30.654Z,99478.66
2023-08-06T14:54:58.988Z,99481.88
2023-08-06T14:57:28.984Z,99470.28
2023-08-06T14:59:58.876Z,99475.28
2023-08-06T15:02:28.962Z,99477.88
2023-08-06T15:04:57.363Z,99477.94
2023-08-06T15:07:25.841Z,99477.47
2023-08-06T15:10:19.822Z,99481.16
2023-08-06T15:12:43.118Z,99499.44
2023-08-06T15:15:13.652Z,99497.25
2023-08-06T15:17:42.049Z,99500.63
2023-08-06T15:20:11.750Z,99507.59
2023-08-06T15:22:40.075Z,99508.69
2023-08-06T15:25:09.186Z,99514.66
2023-08-06T15:27:37.530Z,99517.25
2023-08-06T15:30:06.958Z,99522.28
2023-08-06T15:32:36.699Z,99533.56
2023-08-06T15:35:07.064Z,99537.13
2023-08-06T15:37:35.754Z,99527.25
2023-08-06T15:40:04.647Z,99514.75
2023-08-06T15:42:33.077Z,99527.28
2023-08-06T15:45:01.679Z,99540.34
2023-08-06T15:47:30.156Z,99544.03
2023-08-06T15:49:59.991Z,99543.41
2023-08-06T15:52:28.676Z,99551.16
2023-08-06T15:55:00.365Z,99540.59
2023-08-06T15:57:28.750Z,99559.00
2023-08-06T15:59:57.237Z,99562.50
2023-08-06T16:02:28.116Z,99563.44
2023-08-06T16:04:57.514Z,99561.69
2023-08-06T16:07:27.933Z,99572.44
2023-08-06T16:09:56.799Z,99574.44
2023-08-06T16:12:26.152Z,99570.16
2023-08-06T16:14:54.627Z,99588.00
2023-08-06T16:17:23.948Z,99585.50
2023-08-06T16:19:52.737Z,99586.78
2023-08-06T16:22:21.116Z,99582.72
2023-08-06T16:24:50.838Z,99587.94
2023-08-06T16:27:19.302Z,99589.66
2023-08-06T16:29:49.186Z,99590.34
2023-08-06T16:32:17.700Z,99584.56
2023-08-06T16:34:46.104Z,99594.66
2023-08-06T16:37:15.276Z,99599.84
2023-08-06T16:39:43.638Z,99585.28
2023-08-06T16:42:14.250Z,99605.06
2023-08-06T16:44:42.746Z,99604.13
2023-08-06T16:47:11.337Z,99603.09
2023-08-06T16:49:39.897Z,99604.13
2023-08-06T16:52:09.452Z,99611.31
2023-08-06T16:54:37.906Z,99613.50
2023-08-06T16:57:06.873Z,99615.00
2023-08-06T16:59:36.571Z,99621.13
2023-08-06T17:02:05.351Z,99621.50
2023-08-06T17:04:34.558Z,99626.91
2023-08-06T17:07:02.971Z,99629.47
2023-08-06T17:09:31.382Z,99620.69
2023-08-06T17:11:59.746Z,99625.75
2023-08-06T17:14:28.145Z,99622.38
2023-08-06T17:16:58.328Z,99629.09
2023-08-06T17:19:27.023Z,99636.84
2023-08-06T17:21:55.501Z,99635.91
2023-08-06T17:24:24.090Z,99630.94
2023-08-06T17:26:59.434Z,99639.63
2023-08-06T17:29:28.233Z,99636.84
2023-08-06T17:31:58.076Z,99636.16
2023-08-06T17:34:28.987Z,99638.13
2023-08-06T17:36:57.497Z,99644.13
2023-08-06T17:39:25.973Z,99640.28
2023-08-06T17:41:54.309Z,99646.53
2023-08-06T17:44:22.660Z,99641.81
2023-08-06T17:46:51.380Z,99646.28
2023-08-06T17:49:21.160Z,99653.69
2023-08-06T17:51:49.689Z,99661.34
2023-08-06T17:56:46.559Z,99644.19
2023-08-06T17:59:14.996Z,99658.16
2023-08-06T18:01:43.480Z,99661.06
2023-08-06T18:04:11.991Z,99651.72
2023-08-06T18:06:41.988Z,99663.84
2023-08-06T18:09:10.354Z,99665.13
2023-08-06T18:11:38.793Z,99672.97
2023-08-06T18:14:07.190Z,99666.47
2023-08-06T18:16:35.612Z,99667.31
2023-08-06T18:19:04.024Z,99661.06
2023-08-06T18:21:32.359Z,99677.44
2023-08-06T18:24:02.163Z,99678.38
2023-08-06T18:26:30.653Z,99675.41
2023-08-06T18:28:59.049Z,99673.50
2023-08-06T18:31:27.391Z,99670.88
2023-08-06T18:33:55.837Z,99673.72
2023-08-06T18:36:24.191Z,99678.84
2023-08-06T18:38:52.573Z,99671.13
2023-08-06T18:41:22.279Z,99680.44
2023-08-06T18:43:51.048Z,99682.75
2023-08-06T18:46:19.469Z,99676.06
2023-08-06T18:48:48.023Z,99678.72
2023-08-06T18:51:18.042Z,99685.25
2023-08-06T18:53:46.424Z,99683.22
2023-08-06T18:56:14.834Z,99685.22
2023-08-06T18:58:45.318Z,99689.00
2023-08-06T19:01:13.678Z,99693.03
2023-08-06T19:03:43.678Z,99700.47
2023-08-06T19:06:12.829Z,99689.97
2023-08-06T19:08:43.939Z,99686.94
2023-08-06T19:11:12.308Z,99692.59
2023-08-06T19:13:43.455Z,99697.09
2023-08-06T19:16:13.320Z,99697.72
2023-08-06T19:18:41.839Z,99700.09
2023-08-06T19:21:10.489Z,99700.34
2023-08-06T19:23:38.990Z,99705.00
2023-08-06T19:26:07.384Z,99695.59
2023-08-06T19:28:36.281Z,99698.94
2023-08-06T19:31:04.766Z,99693.38
2023-08-06T19:33:34.616Z,99706.00
2023-08-06T19:36:06.853Z,99701.31
2023-08-06T19:38:35.796Z,99691.97
2023-08-06T19:41:06.613Z,99710.94
2023-08-06T19:43:35.850Z,99707.31
2023-08-06T19:46:04.751Z,99721.41
2023-08-06T19:48:35.288Z,99716.91
2023-08-06T19:51:06.364Z,99725.22
2023-08-06T19:53:36.683Z,99734.19
2023-08-06T19:56:06.442Z,99725.06
2023-08-06T19:58:36.140Z,99721.06
2023-08-06T20:01:07.188Z,99728.81
2023-08-06T20:03:39.090Z,99729.03
2023-08-06T20:06:09.247Z,99721.50
2023-08-06T20:08:37.859Z,99727.25
2023-08-06T20:11:06.598Z,99739.94
2023-08-06T20:13:35.063Z,99729.63
2023-08-06T20:16:03.504Z,99737.44
2023-08-06T20:18:31.930Z,99734.03
2023-08-06T20:21:01.675Z,99733.31
2023-08-06T20:23:30.068Z,99727.78
2023-08-06T20:25:58.407Z,99730.44
2023-08-06T20:28:28.107Z,99729.16
2023-08-06T20:30:57.155Z,99725.84
2023-08-06T20:33:25.668Z,99730.44
2023-08-06T20:35:54.212Z,99721.28
2023-08-06T20:38:25.805Z,99724.59
2023-08-06T20:40:56.485Z,99725.94
2023-08-06T20:43:26.412Z,99726.91
2023-08-06T20:45:55.302Z,99725.94
2023-08-06T20:48:24.151Z,99735.38
2023-08-06T20:50:53.322Z,99731.75
2023-08-06T20:53:24.089Z,99743.56
2023-08-06T20:56:01.201Z,99746.59
2023-08-06T20:58:30.222Z,99744.38
2023-08-06T21:00:59.292Z,99743.03
2023-08-06T21:03:28.673Z,99740.78
2023-08-06T21:06:02.449Z,99739.66
2023-08-06T21:08:33.487Z,99743.50
2023-08-06T21:11:02.944Z,99746.94
2023-08-06T21:13:31.534Z,99744.09
2023-08-06T21:16:01.678Z,99756.16
2023-08-06T21:18:32.990Z,99756.81
2023-08-06T21:21:01.773Z,99760.69
2023-08-06T21:23:31.017Z,99771.06
2023-08-06T21:26:03.824Z,99771.78
2023-08-06T21:28:35.464Z,99770.31
2023-08-06T21:31:06.910Z,99775.41
2023-08-06T21:33:36.928Z,99776.59
2023-08-06T21:36:07.173Z,99782.50
2023-08-06T21:38:37.109Z,99782.41
2023-08-06T21:41:08.544Z,99780.84
2023-08-06T21:43:38.612Z,99783.66
2023-08-06T21:46:10.212Z,99783.22
2023-08-06T21:48:40.758Z,99782.09
2023-08-06T21:51:11.021Z,99791.41
2023-08-06T21:53:40.297Z,99801.28
2023-08-06T21:56:11.914Z,99800.25
2023-08-06T21:58:42.240Z,99800.25
2023-08-06T22:01:11.985Z,99801.56
2023-08-06T22:03:42.783Z,99809.31
2023-08-06T22:06:11.953Z,99795.69
2023-08-06T22:08:41.583Z,99812.34
2023-08-06T22:11:12.234Z,99798.63
2023-08-06T22:13:40.723Z,99811.53
2023-08-06T22:16:09.728Z,99810.19
2023-08-06T22:18:38.400Z,99809.38
2023-08-06T22:21:06.944Z,99811.09
2023-08-06T22:23:35.384Z,99822.16
2023-08-06T22:26:03.733Z,99828.38
2023-08-06T22:28:33.685Z,99829.03
2023-08-06T22:31:02.131Z,99846.38
2023-08-06T22:33:31.728Z,99839.34
2023-08-06T22:36:00.339Z,99855.63
2023-08-06T22:38:28.953Z,99841.84
2023-08-06T22:40:57.302Z,99856.88
2023-08-06T22:43:25.783Z,99858.19
2023-08-06T22:45:56.927Z,99855.66
2023-08-06T22:48:25.356Z,99852.09
2023-08-06T22:50:54.220Z,99858.97
2023-08-06T22:53:22.675Z,99863.03
2023-08-06T22:56:07.522Z,99869.47
2023-08-06T22:58:38.765Z,99871.22
2023-08-06T23:01:08.869Z,99867.69
2023-08-06T23:03:37.378Z,99870.41
2023-08-06T23:06:05.926Z,99866.13
2023-08-06T23:08:34.443Z,99862.59
2023-08-06T23:11:04.405Z,99872.63
2023-08-06T23:13:32.850Z,99873.34
2023-08-06T23:16:01.496Z,99884.09
2023-08-06T23:18:31.367Z,99883.56
2023-08-06T23:20:59.759Z,99871.81
2023-08-06T23:23:28.164Z,99882.31
2023-08-06T23:25:56.527Z,99888.03
2023-08-06T23:28:26.253Z,99888.50
2023-08-06T23:30:55.423Z,99887.78
2023-08-06T23:33:23.866Z,99884.66
2023-08-06T23:35:53.645Z,99892.25
2023-08-06T23:38:22.013Z,99894.97
2023-08-06T23:40:51.170Z,99888.84
2023-08-06T23:43:19.507Z,99890.13
2023-08-06T23:45:47.912Z,99892.38
2023-08-06T23:48:17.162Z,99894.16
2023-08-06T23:50:45.515Z,99887.13
2023-08-06T23:53:15.338Z,99887.59
2023-08-06T23:55:43.776Z,99893.63
2023-08-06T23:58:12.171Z,99884.91
